sensor_id;sensor_type;location;lat;lon;timestamp;P1;durP1;ratioP1;P2;durP2;ratioP2
52188;SDS011;38162;45.926;13.608;2022-12-29T00:02:23;46.53;;;30.58;;
52188;SDS011;38162;45.926;13.608;2022-12-29T00:04:49;43.72;;;29.17;;
52188;SDS011;38162;45.926;13.608;2022-12-29T00:07:16;49.40;;;30.67;;
52188;SDS011;38162;45.926;13.608;2022-12-29T00:09:42;42.28;;;28.23;;
52188;SDS011;38162;45.926;13.608;2022-12-29T00:12:08;44.22;;;29.70;;
52188;SDS011;38162;45.926;13.608;2022-12-29T00:14:34;44.90;;;29.38;;
52188;SDS011;38162;45.926;13.608;2022-12-29T00:17:18;43.50;;;29.60;;
52188;SDS011;38162;45.926;13.608;2022-12-29T00:19:44;48.60;;;31.15;;
52188;SDS011;38162;45.926;13.608;2022-12-29T00:22:28;44.30;;;31.05;;
52188;SDS011;38162;45.926;13.608;2022-12-29T00:25:13;45.90;;;30.63;;
52188;SDS011;38162;45.926;13.608;2022-12-29T00:27:57;48.25;;;29.65;;
52188;SDS011;38162;45.926;13.608;2022-12-29T00:55:02;46.83;;;31.23;;
52188;SDS011;38162;45.926;13.608;2022-12-29T01:01:26;50.23;;;31.57;;
52188;SDS011;38162;45.926;13.608;2022-12-29T01:03:52;47.93;;;31.47;;
52188;SDS011;38162;45.926;13.608;2022-12-29T01:06:18;40.67;;;29.77;;
52188;SDS011;38162;45.926;13.608;2022-12-29T01:08:44;44.10;;;30.10;;
52188;SDS011;38162;45.926;13.608;2022-12-29T01:11:10;41.17;;;28.53;;
52188;SDS011;38162;45.926;13.608;2022-12-29T01:13:37;45.90;;;28.80;;
52188;SDS011;38162;45.926;13.608;2022-12-29T01:16:05;40.80;;;27.57;;
52188;SDS011;38162;45.926;13.608;2022-12-29T01:18:32;44.20;;;28.30;;
52188;SDS011;38162;45.926;13.608;2022-12-29T01:21:02;44.20;;;29.13;;
52188;SDS011;38162;45.926;13.608;2022-12-29T01:23:30;45.38;;;29.20;;
52188;SDS011;38162;45.926;13.608;2022-12-29T01:25:56;39.47;;;26.60;;
52188;SDS011;38162;45.926;13.608;2022-12-29T01:28:22;37.97;;;26.30;;
52188;SDS011;38162;45.926;13.608;2022-12-29T01:30:48;43.13;;;27.13;;
52188;SDS011;38162;45.926;13.608;2022-12-29T01:33:14;40.43;;;27.40;;
52188;SDS011;38162;45.926;13.608;2022-12-29T01:35:39;43.10;;;27.20;;
52188;SDS011;38162;45.926;13.608;2022-12-29T01:38:05;42.83;;;29.37;;
52188;SDS011;38162;45.926;13.608;2022-12-29T01:40:32;44.07;;;28.17;;
52188;SDS011;38162;45.926;13.608;2022-12-29T01:42:58;44.07;;;29.13;;
52188;SDS011;38162;45.926;13.608;2022-12-29T01:45:24;42.87;;;28.27;;
52188;SDS011;38162;45.926;13.608;2022-12-29T01:47:54;47.57;;;29.47;;
52188;SDS011;38162;45.926;13.608;2022-12-29T01:50:37;48.47;;;28.53;;
52188;SDS011;38162;45.926;13.608;2022-12-29T01:53:14;45.33;;;28.93;;
52188;SDS011;38162;45.926;13.608;2022-12-29T01:55:50;49.20;;;29.97;;
52188;SDS011;38162;45.926;13.608;2022-12-29T01:58:19;45.07;;;29.07;;
52188;SDS011;38162;45.926;13.608;2022-12-29T02:00:48;47.00;;;30.00;;
52188;SDS011;38162;45.926;13.608;2022-12-29T02:03:14;48.20;;;30.57;;
52188;SDS011;38162;45.926;13.608;2022-12-29T02:05:46;48.17;;;29.83;;
52188;SDS011;38162;45.926;13.608;2022-12-29T02:08:34;43.53;;;28.98;;
52188;SDS011;38162;45.926;13.608;2022-12-29T02:11:01;44.20;;;28.47;;
52188;SDS011;38162;45.926;13.608;2022-12-29T02:13:28;43.27;;;28.67;;
52188;SDS011;38162;45.926;13.608;2022-12-29T02:54:26;46.27;;;29.20;;
52188;SDS011;38162;45.926;13.608;2022-12-29T02:59:46;45.77;;;29.67;;
52188;SDS011;38162;45.926;13.608;2022-12-29T03:02:19;49.17;;;31.23;;
52188;SDS011;38162;45.926;13.608;2022-12-29T03:07:26;45.17;;;28.98;;
52188;SDS011;38162;45.926;13.608;2022-12-29T03:10:04;48.30;;;29.93;;
52188;SDS011;38162;45.926;13.608;2022-12-29T03:15:29;44.27;;;29.23;;
52188;SDS011;38162;45.926;13.608;2022-12-29T03:18:21;44.37;;;29.60;;
52188;SDS011;38162;45.926;13.608;2022-12-29T03:21:00;47.53;;;30.03;;
52188;SDS011;38162;45.926;13.608;2022-12-29T03:23:29;44.77;;;28.97;;
52188;SDS011;38162;45.926;13.608;2022-12-29T03:25:56;49.97;;;30.10;;
52188;SDS011;38162;45.926;13.608;2022-12-29T03:28:25;42.13;;;28.13;;
52188;SDS011;38162;45.926;13.608;2022-12-29T03:30:53;49.10;;;30.17;;
52188;SDS011;38162;45.926;13.608;2022-12-29T03:33:23;44.93;;;28.33;;
52188;SDS011;38162;45.926;13.608;2022-12-29T03:35:51;41.40;;;27.93;;
52188;SDS011;38162;45.926;13.608;2022-12-29T03:38:22;47.80;;;28.93;;
52188;SDS011;38162;45.926;13.608;2022-12-29T03:40:51;47.77;;;28.07;;
52188;SDS011;38162;45.926;13.608;2022-12-29T03:43:17;41.37;;;28.43;;
52188;SDS011;38162;45.926;13.608;2022-12-29T03:45:44;45.10;;;28.23;;
52188;SDS011;38162;45.926;13.608;2022-12-29T03:48:10;43.87;;;27.93;;
52188;SDS011;38162;45.926;13.608;2022-12-29T03:50:36;46.83;;;29.33;;
52188;SDS011;38162;45.926;13.608;2022-12-29T03:53:02;45.63;;;28.40;;
52188;SDS011;38162;45.926;13.608;2022-12-29T03:55:28;44.07;;;28.30;;
52188;SDS011;38162;45.926;13.608;2022-12-29T03:57:55;46.93;;;29.03;;
52188;SDS011;38162;45.926;13.608;2022-12-29T04:00:21;50.20;;;31.23;;
52188;SDS011;38162;45.926;13.608;2022-12-29T04:02:47;45.63;;;29.53;;
52188;SDS011;38162;45.926;13.608;2022-12-29T04:05:14;45.47;;;28.40;;
52188;SDS011;38162;45.926;13.608;2022-12-29T04:29:43;52.93;;;29.70;;
52188;SDS011;38162;45.926;13.608;2022-12-29T04:35:12;46.75;;;29.45;;
52188;SDS011;38162;45.926;13.608;2022-12-29T04:37:41;45.77;;;28.20;;
52188;SDS011;38162;45.926;13.608;2022-12-29T04:40:07;46.53;;;29.27;;
52188;SDS011;38162;45.926;13.608;2022-12-29T04:42:34;45.40;;;28.57;;
52188;SDS011;38162;45.926;13.608;2022-12-29T04:45:00;42.80;;;27.53;;
52188;SDS011;38162;45.926;13.608;2022-12-29T04:47:26;45.60;;;29.63;;
52188;SDS011;38162;45.926;13.608;2022-12-29T04:49:51;42.40;;;27.37;;
52188;SDS011;38162;45.926;13.608;2022-12-29T04:52:17;49.27;;;29.03;;
52188;SDS011;38162;45.926;13.608;2022-12-29T04:54:43;47.17;;;30.03;;
52188;SDS011;38162;45.926;13.608;2022-12-29T04:57:09;45.80;;;28.97;;
52188;SDS011;38162;45.926;13.608;2022-12-29T04:59:35;45.73;;;30.57;;
52188;SDS011;38162;45.926;13.608;2022-12-29T05:02:01;47.43;;;30.70;;
52188;SDS011;38162;45.926;13.608;2022-12-29T05:04:26;49.93;;;29.73;;
52188;SDS011;38162;45.926;13.608;2022-12-29T05:06:52;46.13;;;29.63;;
52188;SDS011;38162;45.926;13.608;2022-12-29T05:09:18;48.73;;;29.53;;
52188;SDS011;38162;45.926;13.608;2022-12-29T05:11:44;50.07;;;29.67;;
52188;SDS011;38162;45.926;13.608;2022-12-29T05:14:09;48.00;;;29.47;;
52188;SDS011;38162;45.926;13.608;2022-12-29T05:16:35;49.63;;;29.90;;
52188;SDS011;38162;45.926;13.608;2022-12-29T05:19:02;44.83;;;27.67;;
52188;SDS011;38162;45.926;13.608;2022-12-29T05:21:28;43.00;;;28.20;;
52188;SDS011;38162;45.926;13.608;2022-12-29T05:23:54;49.30;;;29.03;;
52188;SDS011;38162;45.926;13.608;2022-12-29T05:26:20;44.20;;;27.53;;
52188;SDS011;38162;45.926;13.608;2022-12-29T05:28:46;43.63;;;28.00;;
52188;SDS011;38162;45.926;13.608;2022-12-29T05:31:12;43.80;;;27.47;;
52188;SDS011;38162;45.926;13.608;2022-12-29T05:33:38;44.40;;;27.77;;
52188;SDS011;38162;45.926;13.608;2022-12-29T05:36:05;42.73;;;27.23;;
52188;SDS011;38162;45.926;13.608;2022-12-29T05:38:31;45.80;;;27.10;;
52188;SDS011;38162;45.926;13.608;2022-12-29T05:40:57;42.20;;;27.30;;
52188;SDS011;38162;45.926;13.608;2022-12-29T05:43:23;46.83;;;28.27;;
52188;SDS011;38162;45.926;13.608;2022-12-29T05:45:50;38.30;;;26.10;;
52188;SDS011;38162;45.926;13.608;2022-12-29T05:48:16;41.07;;;25.73;;
52188;SDS011;38162;45.926;13.608;2022-12-29T05:50:42;39.27;;;25.87;;
52188;SDS011;38162;45.926;13.608;2022-12-29T05:53:08;40.47;;;26.50;;
52188;SDS011;38162;45.926;13.608;2022-12-29T06:01:24;40.60;;;25.50;;
52188;SDS011;38162;45.926;13.608;2022-12-29T06:25:07;46.97;;;26.53;;
52188;SDS011;38162;45.926;13.608;2022-12-29T06:27:34;45.70;;;26.87;;
52188;SDS011;38162;45.926;13.608;2022-12-29T06:30:01;44.40;;;25.47;;
52188;SDS011;38162;45.926;13.608;2022-12-29T06:32:27;44.77;;;27.13;;
52188;SDS011;38162;45.926;13.608;2022-12-29T06:34:53;43.53;;;26.77;;
52188;SDS011;38162;45.926;13.608;2022-12-29T06:37:19;42.80;;;26.93;;
52188;SDS011;38162;45.926;13.608;2022-12-29T06:39:45;44.83;;;26.87;;
52188;SDS011;38162;45.926;13.608;2022-12-29T06:42:11;43.87;;;26.97;;
52188;SDS011;38162;45.926;13.608;2022-12-29T06:44:37;40.67;;;26.87;;
52188;SDS011;38162;45.926;13.608;2022-12-29T06:47:03;42.07;;;27.00;;
52188;SDS011;38162;45.926;13.608;2022-12-29T06:49:30;42.87;;;28.87;;
52188;SDS011;38162;45.926;13.608;2022-12-29T06:51:56;49.23;;;28.37;;
52188;SDS011;38162;45.926;13.608;2022-12-29T06:54:23;46.40;;;27.90;;
52188;SDS011;38162;45.926;13.608;2022-12-29T06:56:49;46.37;;;26.90;;
52188;SDS011;38162;45.926;13.608;2022-12-29T06:59:15;45.40;;;28.03;;
52188;SDS011;38162;45.926;13.608;2022-12-29T07:01:41;43.07;;;28.13;;
52188;SDS011;38162;45.926;13.608;2022-12-29T07:04:07;42.50;;;26.93;;
52188;SDS011;38162;45.926;13.608;2022-12-29T07:06:33;46.77;;;27.10;;
52188;SDS011;38162;45.926;13.608;2022-12-29T07:09:00;43.23;;;26.93;;
52188;SDS011;38162;45.926;13.608;2022-12-29T07:11:26;43.83;;;28.10;;
52188;SDS011;38162;45.926;13.608;2022-12-29T07:13:52;41.50;;;26.50;;
52188;SDS011;38162;45.926;13.608;2022-12-29T07:16:18;43.47;;;26.47;;
52188;SDS011;38162;45.926;13.608;2022-12-29T07:18:45;46.83;;;27.40;;
52188;SDS011;38162;45.926;13.608;2022-12-29T07:21:11;44.17;;;26.97;;
52188;SDS011;38162;45.926;13.608;2022-12-29T07:23:37;42.73;;;27.80;;
52188;SDS011;38162;45.926;13.608;2022-12-29T07:26:04;41.20;;;27.13;;
52188;SDS011;38162;45.926;13.608;2022-12-29T07:28:31;42.47;;;26.53;;
52188;SDS011;38162;45.926;13.608;2022-12-29T07:30:57;42.03;;;27.57;;
52188;SDS011;38162;45.926;13.608;2022-12-29T07:33:23;39.13;;;25.73;;
52188;SDS011;38162;45.926;13.608;2022-12-29T07:35:50;46.17;;;27.73;;
52188;SDS011;38162;45.926;13.608;2022-12-29T07:38:16;47.87;;;27.63;;
52188;SDS011;38162;45.926;13.608;2022-12-29T07:40:43;42.33;;;26.43;;
52188;SDS011;38162;45.926;13.608;2022-12-29T07:43:12;43.33;;;25.50;;
52188;SDS011;38162;45.926;13.608;2022-12-29T08:08:04;39.73;;;22.77;;
52188;SDS011;38162;45.926;13.608;2022-12-29T08:11:01;34.50;;;21.73;;
52188;SDS011;38162;45.926;13.608;2022-12-29T08:13:28;31.17;;;20.47;;
52188;SDS011;38162;45.926;13.608;2022-12-29T08:15:54;34.67;;;21.33;;
52188;SDS011;38162;45.926;13.608;2022-12-29T08:18:20;35.20;;;21.00;;
52188;SDS011;38162;45.926;13.608;2022-12-29T08:20:47;33.60;;;21.67;;
52188;SDS011;38162;45.926;13.608;2022-12-29T08:23:13;34.87;;;20.97;;
52188;SDS011;38162;45.926;13.608;2022-12-29T08:25:39;37.50;;;22.80;;
52188;SDS011;38162;45.926;13.608;2022-12-29T08:28:05;40.37;;;24.30;;
52188;SDS011;38162;45.926;13.608;2022-12-29T08:30:31;39.60;;;23.40;;
52188;SDS011;38162;45.926;13.608;2022-12-29T08:32:58;37.97;;;23.50;;
52188;SDS011;38162;45.926;13.608;2022-12-29T08:35:24;36.67;;;22.20;;
52188;SDS011;38162;45.926;13.608;2022-12-29T08:37:50;38.47;;;23.67;;
52188;SDS011;38162;45.926;13.608;2022-12-29T08:40:16;40.77;;;24.67;;
52188;SDS011;38162;45.926;13.608;2022-12-29T08:42:43;38.33;;;24.83;;
52188;SDS011;38162;45.926;13.608;2022-12-29T08:45:09;36.07;;;23.50;;
52188;SDS011;38162;45.926;13.608;2022-12-29T08:47:35;35.27;;;23.07;;
52188;SDS011;38162;45.926;13.608;2022-12-29T08:50:01;36.50;;;23.23;;
52188;SDS011;38162;45.926;13.608;2022-12-29T08:52:27;37.40;;;23.83;;
52188;SDS011;38162;45.926;13.608;2022-12-29T08:54:53;37.03;;;23.77;;
52188;SDS011;38162;45.926;13.608;2022-12-29T08:57:20;37.23;;;24.67;;
52188;SDS011;38162;45.926;13.608;2022-12-29T08:59:46;41.23;;;23.97;;
52188;SDS011;38162;45.926;13.608;2022-12-29T09:02:12;39.53;;;25.03;;
52188;SDS011;38162;45.926;13.608;2022-12-29T09:04:38;38.23;;;23.93;;
52188;SDS011;38162;45.926;13.608;2022-12-29T09:07:04;37.40;;;23.70;;
52188;SDS011;38162;45.926;13.608;2022-12-29T09:09:31;38.47;;;23.90;;
52188;SDS011;38162;45.926;13.608;2022-12-29T09:11:57;40.87;;;24.43;;
52188;SDS011;38162;45.926;13.608;2022-12-29T09:14:23;39.57;;;25.10;;
52188;SDS011;38162;45.926;13.608;2022-12-29T09:16:53;38.33;;;23.60;;
52188;SDS011;38162;45.926;13.608;2022-12-29T09:19:38;39.40;;;26.27;;
52188;SDS011;38162;45.926;13.608;2022-12-29T09:22:10;43.80;;;25.83;;
52188;SDS011;38162;45.926;13.608;2022-12-29T09:24:36;41.80;;;23.90;;
52188;SDS011;38162;45.926;13.608;2022-12-29T09:30:02;38.30;;;24.43;;
52188;SDS011;38162;45.926;13.608;2022-12-29T09:32:55;31.67;;;22.37;;
52188;SDS011;38162;45.926;13.608;2022-12-29T09:35:42;35.70;;;22.97;;
52188;SDS011;38162;45.926;13.608;2022-12-29T10:00:05;41.37;;;26.00;;
52188;SDS011;38162;45.926;13.608;2022-12-29T10:02:40;41.23;;;25.87;;
52188;SDS011;38162;45.926;13.608;2022-12-29T10:05:19;39.13;;;24.23;;
52188;SDS011;38162;45.926;13.608;2022-12-29T10:07:59;39.13;;;25.50;;
52188;SDS011;38162;45.926;13.608;2022-12-29T10:10:38;39.08;;;25.05;;
52188;SDS011;38162;45.926;13.608;2022-12-29T10:23:28;42.75;;;26.55;;
52188;SDS011;38162;45.926;13.608;2022-12-29T10:25:57;42.50;;;26.10;;
52188;SDS011;38162;45.926;13.608;2022-12-29T10:28:43;43.97;;;27.17;;
52188;SDS011;38162;45.926;13.608;2022-12-29T10:31:21;39.60;;;26.83;;
52188;SDS011;38162;45.926;13.608;2022-12-29T10:33:49;44.40;;;28.00;;
52188;SDS011;38162;45.926;13.608;2022-12-29T10:36:17;47.97;;;27.37;;
52188;SDS011;38162;45.926;13.608;2022-12-29T10:41:38;44.73;;;27.97;;
52188;SDS011;38162;45.926;13.608;2022-12-29T10:44:06;44.17;;;29.38;;
52188;SDS011;38162;45.926;13.608;2022-12-29T10:46:35;45.30;;;30.17;;
52188;SDS011;38162;45.926;13.608;2022-12-29T10:49:02;46.30;;;29.58;;
52188;SDS011;38162;45.926;13.608;2022-12-29T10:51:30;48.65;;;29.58;;
52188;SDS011;38162;45.926;13.608;2022-12-29T10:59:29;48.53;;;30.47;;
52188;SDS011;38162;45.926;13.608;2022-12-29T11:02:13;51.13;;;32.17;;
52188;SDS011;38162;45.926;13.608;2022-12-29T11:07:20;58.03;;;30.98;;
52188;SDS011;38162;45.926;13.608;2022-12-29T11:09:47;51.45;;;31.52;;
52188;SDS011;38162;45.926;13.608;2022-12-29T11:12:34;48.33;;;29.95;;
52188;SDS011;38162;45.926;13.608;2022-12-29T11:45:25;41.73;;;26.23;;
52188;SDS011;38162;45.926;13.608;2022-12-29T11:48:09;41.58;;;26.70;;
52188;SDS011;38162;45.926;13.608;2022-12-29T11:50:40;40.55;;;26.60;;
52188;SDS011;38162;45.926;13.608;2022-12-29T11:53:14;38.13;;;26.00;;
52188;SDS011;38162;45.926;13.608;2022-12-29T11:55:52;46.17;;;28.10;;
52188;SDS011;38162;45.926;13.608;2022-12-29T11:58:19;52.87;;;31.53;;
52188;SDS011;38162;45.926;13.608;2022-12-29T12:00:45;53.17;;;33.47;;
52188;SDS011;38162;45.926;13.608;2022-12-29T12:03:17;56.77;;;33.63;;
52188;SDS011;38162;45.926;13.608;2022-12-29T12:05:49;48.67;;;31.00;;
52188;SDS011;38162;45.926;13.608;2022-12-29T12:14:19;46.63;;;30.23;;
52188;SDS011;38162;45.926;13.608;2022-12-29T12:16:19;46.53;;;28.93;;
52188;SDS011;38162;45.926;13.608;2022-12-29T12:19:33;52.22;;;30.83;;
52188;SDS011;38162;45.926;13.608;2022-12-29T12:21:40;49.33;;;30.70;;
52188;SDS011;38162;45.926;13.608;2022-12-29T12:26:52;48.03;;;31.02;;
52188;SDS011;38162;45.926;13.608;2022-12-29T12:34:36;51.85;;;31.92;;
52188;SDS011;38162;45.926;13.608;2022-12-29T12:37:19;55.45;;;33.10;;
52188;SDS011;38162;45.926;13.608;2022-12-29T12:50:08;52.58;;;33.35;;
52188;SDS011;38162;45.926;13.608;2022-12-29T12:52:54;50.97;;;32.67;;
52188;SDS011;38162;45.926;13.608;2022-12-29T12:57:53;43.83;;;29.55;;
52188;SDS011;38162;45.926;13.608;2022-12-29T13:00:27;49.78;;;30.77;;
52188;SDS011;38162;45.926;13.608;2022-12-29T13:37:53;45.00;;;29.25;;
52188;SDS011;38162;45.926;13.608;2022-12-29T13:40:22;42.70;;;27.88;;
52188;SDS011;38162;45.926;13.608;2022-12-29T13:42:50;43.28;;;28.17;;
52188;SDS011;38162;45.926;13.608;2022-12-29T13:45:19;45.42;;;28.35;;
52188;SDS011;38162;45.926;13.608;2022-12-29T13:47:54;41.70;;;27.60;;
52188;SDS011;38162;45.926;13.608;2022-12-29T13:50:22;40.67;;;26.85;;
52188;SDS011;38162;45.926;13.608;2022-12-29T14:08:38;44.95;;;29.75;;
52188;SDS011;38162;45.926;13.608;2022-12-29T14:11:11;46.70;;;29.85;;
52188;SDS011;38162;45.926;13.608;2022-12-29T14:13:38;47.30;;;30.50;;
52188;SDS011;38162;45.926;13.608;2022-12-29T14:16:06;46.95;;;31.67;;
52188;SDS011;38162;45.926;13.608;2022-12-29T14:18:33;52.00;;;31.27;;
52188;SDS011;38162;45.926;13.608;2022-12-29T14:21:10;47.75;;;29.77;;
52188;SDS011;38162;45.926;13.608;2022-12-29T14:23:44;53.20;;;29.67;;
52188;SDS011;38162;45.926;13.608;2022-12-29T14:28:37;50.63;;;28.95;;
52188;SDS011;38162;45.926;13.608;2022-12-29T14:36:34;51.70;;;32.00;;
52188;SDS011;38162;45.926;13.608;2022-12-29T14:39:00;51.95;;;31.73;;
52188;SDS011;38162;45.926;13.608;2022-12-29T14:41:34;50.22;;;31.75;;
52188;SDS011;38162;45.926;13.608;2022-12-29T15:17:55;45.13;;;29.95;;
52188;SDS011;38162;45.926;13.608;2022-12-29T15:22:57;51.00;;;30.90;;
52188;SDS011;38162;45.926;13.608;2022-12-29T15:25:26;44.80;;;28.40;;
52188;SDS011;38162;45.926;13.608;2022-12-29T15:28:00;43.08;;;28.30;;
52188;SDS011;38162;45.926;13.608;2022-12-29T15:30:27;49.70;;;31.48;;
52188;SDS011;38162;45.926;13.608;2022-12-29T15:32:53;50.47;;;30.60;;
52188;SDS011;38162;45.926;13.608;2022-12-29T15:35:33;48.17;;;30.77;;
52188;SDS011;38162;45.926;13.608;2022-12-29T15:37:59;43.00;;;30.70;;
52188;SDS011;38162;45.926;13.608;2022-12-29T15:40:31;51.47;;;30.35;;
52188;SDS011;38162;45.926;13.608;2022-12-29T15:45:50;47.90;;;31.08;;
52188;SDS011;38162;45.926;13.608;2022-12-29T15:48:19;52.53;;;31.73;;
52188;SDS011;38162;45.926;13.608;2022-12-29T15:50:46;53.63;;;33.15;;
52188;SDS011;38162;45.926;13.608;2022-12-29T15:53:18;67.50;;;41.42;;
52188;SDS011;38162;45.926;13.608;2022-12-29T15:58:20;61.77;;;37.93;;
52188;SDS011;38162;45.926;13.608;2022-12-29T16:00:47;59.35;;;37.90;;
52188;SDS011;38162;45.926;13.608;2022-12-29T16:03:14;56.22;;;36.00;;
52188;SDS011;38162;45.926;13.608;2022-12-29T16:05:41;61.40;;;37.55;;
52188;SDS011;38162;45.926;13.608;2022-12-29T16:10:51;63.63;;;40.63;;
52188;SDS011;38162;45.926;13.608;2022-12-29T16:13:38;70.50;;;46.75;;
52188;SDS011;38162;45.926;13.608;2022-12-29T16:16:09;63.87;;;43.23;;
52188;SDS011;38162;45.926;13.608;2022-12-29T16:18:39;71.03;;;47.97;;
52188;SDS011;38162;45.926;13.608;2022-12-29T16:21:06;73.47;;;48.08;;
52188;SDS011;38162;45.926;13.608;2022-12-29T16:23:40;67.38;;;45.58;;
52188;SDS011;38162;45.926;13.608;2022-12-29T16:26:13;59.22;;;39.10;;
52188;SDS011;38162;45.926;13.608;2022-12-29T16:28:42;58.03;;;39.85;;
52188;SDS011;38162;45.926;13.608;2022-12-29T16:40:32;47.88;;;33.25;;
52188;SDS011;38162;45.926;13.608;2022-12-29T16:57:24;56.78;;;33.65;;
52188;SDS011;38162;45.926;13.608;2022-12-29T16:59:55;52.45;;;32.28;;
52188;SDS011;38162;45.926;13.608;2022-12-29T17:02:24;51.90;;;32.35;;
52188;SDS011;38162;45.926;13.608;2022-12-29T17:04:51;51.63;;;33.78;;
52188;SDS011;38162;45.926;13.608;2022-12-29T17:07:19;53.63;;;34.67;;
52188;SDS011;38162;45.926;13.608;2022-12-29T17:09:45;52.60;;;34.00;;
52188;SDS011;38162;45.926;13.608;2022-12-29T17:12:18;59.45;;;36.83;;
52188;SDS011;38162;45.926;13.608;2022-12-29T17:14:52;53.17;;;35.08;;
52188;SDS011;38162;45.926;13.608;2022-12-29T17:19:54;53.53;;;34.95;;
52188;SDS011;38162;45.926;13.608;2022-12-29T17:22:24;56.55;;;35.78;;
52188;SDS011;38162;45.926;13.608;2022-12-29T17:24:51;56.15;;;37.83;;
52188;SDS011;38162;45.926;13.608;2022-12-29T17:27:20;67.78;;;38.92;;
52188;SDS011;38162;45.926;13.608;2022-12-29T17:29:47;62.40;;;39.73;;
52188;SDS011;38162;45.926;13.608;2022-12-29T17:32:13;62.03;;;40.25;;
52188;SDS011;38162;45.926;13.608;2022-12-29T17:34:40;60.42;;;38.85;;
52188;SDS011;38162;45.926;13.608;2022-12-29T17:37:20;63.05;;;38.33;;
52188;SDS011;38162;45.926;13.608;2022-12-29T17:39:50;58.65;;;39.95;;
52188;SDS011;38162;45.926;13.608;2022-12-29T17:42:19;56.65;;;37.92;;
52188;SDS011;38162;45.926;13.608;2022-12-29T17:44:45;59.13;;;40.40;;
52188;SDS011;38162;45.926;13.608;2022-12-29T17:47:11;61.38;;;38.72;;
52188;SDS011;38162;45.926;13.608;2022-12-29T17:49:39;62.28;;;40.22;;
52188;SDS011;38162;45.926;13.608;2022-12-29T17:52:10;63.78;;;39.92;;
52188;SDS011;38162;45.926;13.608;2022-12-29T17:54:37;62.42;;;40.22;;
52188;SDS011;38162;45.926;13.608;2022-12-29T17:57:08;60.72;;;39.80;;
52188;SDS011;38162;45.926;13.608;2022-12-29T17:59:36;62.60;;;40.53;;
52188;SDS011;38162;45.926;13.608;2022-12-29T18:02:02;67.20;;;40.15;;
52188;SDS011;38162;45.926;13.608;2022-12-29T18:04:29;67.50;;;40.08;;
52188;SDS011;38162;45.926;13.608;2022-12-29T18:06:56;63.47;;;41.88;;
52188;SDS011;38162;45.926;13.608;2022-12-29T18:09:22;57.50;;;39.63;;
52188;SDS011;38162;45.926;13.608;2022-12-29T18:11:57;68.40;;;42.97;;
52188;SDS011;38162;45.926;13.608;2022-12-29T18:14:24;92.40;;;55.70;;
52188;SDS011;38162;45.926;13.608;2022-12-29T18:37:53;65.53;;;43.42;;
52188;SDS011;38162;45.926;13.608;2022-12-29T18:43:48;63.67;;;40.92;;
52188;SDS011;38162;45.926;13.608;2022-12-29T18:46:14;75.95;;;46.40;;
52188;SDS011;38162;45.926;13.608;2022-12-29T18:48:41;72.47;;;49.17;;
52188;SDS011;38162;45.926;13.608;2022-12-29T18:51:13;97.88;;;62.55;;
52188;SDS011;38162;45.926;13.608;2022-12-29T18:53:40;89.43;;;58.30;;
52188;SDS011;38162;45.926;13.608;2022-12-29T18:56:06;75.90;;;50.83;;
52188;SDS011;38162;45.926;13.608;2022-12-29T18:58:33;65.85;;;41.47;;
52188;SDS011;38162;45.926;13.608;2022-12-29T19:00:59;66.50;;;41.45;;
52188;SDS011;38162;45.926;13.608;2022-12-29T19:03:25;64.57;;;41.45;;
52188;SDS011;38162;45.926;13.608;2022-12-29T19:05:52;60.60;;;39.35;;
52188;SDS011;38162;45.926;13.608;2022-12-29T19:08:18;60.92;;;40.63;;
52188;SDS011;38162;45.926;13.608;2022-12-29T19:10:44;66.70;;;41.20;;
52188;SDS011;38162;45.926;13.608;2022-12-29T19:13:14;62.03;;;41.55;;
52188;SDS011;38162;45.926;13.608;2022-12-29T19:15:41;70.82;;;41.42;;
52188;SDS011;38162;45.926;13.608;2022-12-29T19:18:09;64.32;;;41.03;;
52188;SDS011;38162;45.926;13.608;2022-12-29T19:20:37;64.85;;;43.00;;
52188;SDS011;38162;45.926;13.608;2022-12-29T19:23:05;70.05;;;42.58;;
52188;SDS011;38162;45.926;13.608;2022-12-29T19:25:31;70.40;;;42.60;;
52188;SDS011;38162;45.926;13.608;2022-12-29T19:27:58;60.88;;;40.58;;
52188;SDS011;38162;45.926;13.608;2022-12-29T19:30:24;65.57;;;42.58;;
52188;SDS011;38162;45.926;13.608;2022-12-29T19:32:52;65.18;;;41.65;;
52188;SDS011;38162;45.926;13.608;2022-12-29T19:35:19;61.58;;;41.22;;
52188;SDS011;38162;45.926;13.608;2022-12-29T19:37:45;65.15;;;43.13;;
52188;SDS011;38162;45.926;13.608;2022-12-29T19:40:12;57.40;;;40.45;;
52188;SDS011;38162;45.926;13.608;2022-12-29T19:42:39;65.50;;;42.47;;
52188;SDS011;38162;45.926;13.608;2022-12-29T19:45:05;61.72;;;40.78;;
52188;SDS011;38162;45.926;13.608;2022-12-29T19:47:32;65.32;;;42.00;;
52188;SDS011;38162;45.926;13.608;2022-12-29T19:49:58;59.13;;;39.28;;
52188;SDS011;38162;45.926;13.608;2022-12-29T19:52:25;60.78;;;41.28;;
52188;SDS011;38162;45.926;13.608;2022-12-29T19:54:55;65.75;;;42.28;;
52188;SDS011;38162;45.926;13.608;2022-12-29T19:57:31;64.03;;;42.85;;
52188;SDS011;38162;45.926;13.608;2022-12-29T20:17:59;66.68;;;44.08;;
52188;SDS011;38162;45.926;13.608;2022-12-29T20:20:26;73.60;;;45.78;;
52188;SDS011;38162;45.926;13.608;2022-12-29T20:26:00;69.20;;;45.30;;
52188;SDS011;38162;45.926;13.608;2022-12-29T20:28:26;66.35;;;45.33;;
52188;SDS011;38162;45.926;13.608;2022-12-29T20:30:54;69.28;;;45.83;;
52188;SDS011;38162;45.926;13.608;2022-12-29T20:33:20;68.90;;;46.22;;
52188;SDS011;38162;45.926;13.608;2022-12-29T20:35:46;66.78;;;45.83;;
52188;SDS011;38162;45.926;13.608;2022-12-29T20:38:13;68.18;;;45.58;;
52188;SDS011;38162;45.926;13.608;2022-12-29T20:40:39;70.78;;;47.67;;
52188;SDS011;38162;45.926;13.608;2022-12-29T20:43:06;73.33;;;47.47;;
52188;SDS011;38162;45.926;13.608;2022-12-29T20:45:33;75.93;;;50.28;;
52188;SDS011;38162;45.926;13.608;2022-12-29T20:47:59;82.55;;;53.35;;
52188;SDS011;38162;45.926;13.608;2022-12-29T20:50:25;79.07;;;53.00;;
52188;SDS011;38162;45.926;13.608;2022-12-29T20:52:51;79.47;;;51.97;;
52188;SDS011;38162;45.926;13.608;2022-12-29T20:55:17;85.25;;;54.15;;
52188;SDS011;38162;45.926;13.608;2022-12-29T20:57:43;79.60;;;55.50;;
52188;SDS011;38162;45.926;13.608;2022-12-29T21:00:10;79.57;;;55.22;;
52188;SDS011;38162;45.926;13.608;2022-12-29T21:02:36;76.30;;;52.78;;
52188;SDS011;38162;45.926;13.608;2022-12-29T21:05:02;82.20;;;55.30;;
52188;SDS011;38162;45.926;13.608;2022-12-29T21:07:28;81.03;;;53.88;;
52188;SDS011;38162;45.926;13.608;2022-12-29T21:09:54;85.85;;;57.28;;
52188;SDS011;38162;45.926;13.608;2022-12-29T21:12:20;87.35;;;59.13;;
52188;SDS011;38162;45.926;13.608;2022-12-29T21:14:46;78.72;;;53.00;;
52188;SDS011;38162;45.926;13.608;2022-12-29T21:17:12;83.57;;;55.95;;
52188;SDS011;38162;45.926;13.608;2022-12-29T21:19:39;91.13;;;57.47;;
52188;SDS011;38162;45.926;13.608;2022-12-29T21:22:05;88.95;;;58.05;;
52188;SDS011;38162;45.926;13.608;2022-12-29T21:24:31;87.22;;;58.90;;
52188;SDS011;38162;45.926;13.608;2022-12-29T21:26:57;86.55;;;57.08;;